sensor_id;sensor_type;location;lat;lon;timestamp;temperature;humidity
13713;DHT22;6928;50.546;7.120;2023-08-21T00:01:41;21.32;86.07
13713;DHT22;6928;50.546;7.120;2023-08-21T00:04:08;21.24;86.27
13713;DHT22;6928;50.546;7.120;2023-08-21T00:06:35;21.23;86.26
13713;DHT22;6928;50.546;7.120;2023-08-21T00:09:02;21.23;86.24
13713;DHT22;6928;50.546;7.120;2023-08-21T00:11:29;21.16;86.41
13713;DHT22;6928;50.546;7.120;2023-08-21T00:13:57;21.17;86.27
13713;DHT22;6928;50.546;7.120;2023-08-21T00:16:24;21.12;86.66
13713;DHT22;6928;50.546;7.120;2023-08-21T00:18:52;21.16;86.47
13713;DHT22;6928;50.546;7.120;2023-08-21T00:21:19;21.15;86.58
13713;DHT22;6928;50.546;7.120;2023-08-21T00:23:46;21.10;86.49
13713;DHT22;6928;50.546;7.120;2023-08-21T00:26:13;21.02;86.87
13713;DHT22;6928;50.546;7.120;2023-08-21T00:28:39;21.00;86.79
13713;DHT22;6928;50.546;7.120;2023-08-21T00:31:08;20.92;87.09
13713;DHT22;6928;50.546;7.120;2023-08-21T00:33:34;20.92;87.18
13713;DHT22;6928;50.546;7.120;2023-08-21T00:36:03;21.00;86.77
13713;DHT22;6928;50.546;7.120;2023-08-21T00:38:29;21.03;86.60
13713;DHT22;6928;50.546;7.120;2023-08-21T00:40:56;20.96;86.84
13713;DHT22;6928;50.546;7.120;2023-08-21T00:43:23;20.92;86.76
13713;DHT22;6928;50.546;7.120;2023-08-21T00:45:50;20.96;86.68
13713;DHT22;6928;50.546;7.120;2023-08-21T00:48:19;20.88;86.80
13713;DHT22;6928;50.546;7.120;2023-08-21T00:50:46;20.86;87.06
13713;DHT22;6928;50.546;7.120;2023-08-21T00:53:13;20.88;86.93
13713;DHT22;6928;50.546;7.120;2023-08-21T00:55:40;20.81;87.30
13713;DHT22;6928;50.546;7.120;2023-08-21T00:58:09;20.81;87.15
13713;DHT22;6928;50.546;7.120;2023-08-21T01:00:37;20.82;87.12
13713;DHT22;6928;50.546;7.120;2023-08-21T01:03:04;20.79;87.07
13713;DHT22;6928;50.546;7.120;2023-08-21T01:05:33;20.74;87.37
13713;DHT22;6928;50.546;7.120;2023-08-21T01:08:02;20.71;87.41
13713;DHT22;6928;50.546;7.120;2023-08-21T01:10:39;20.81;86.81
13713;DHT22;6928;50.546;7.120;2023-08-21T01:13:18;20.79;87.05
13713;DHT22;6928;50.546;7.120;2023-08-21T01:15:47;20.78;86.95
13713;DHT22;6928;50.546;7.120;2023-08-21T01:18:17;20.69;87.26
13713;DHT22;6928;50.546;7.120;2023-08-21T01:20:46;20.65;87.44
13713;DHT22;6928;50.546;7.120;2023-08-21T01:23:29;20.57;87.64
13713;DHT22;6928;50.546;7.120;2023-08-21T01:25:56;20.59;87.52
13713;DHT22;6928;50.546;7.120;2023-08-21T01:28:23;20.58;87.51
13713;DHT22;6928;50.546;7.120;2023-08-21T01:30:53;20.57;87.51
13713;DHT22;6928;50.546;7.120;2023-08-21T01:33:23;20.64;87.31
13713;DHT22;6928;50.546;7.120;2023-08-21T01:35:51;20.62;87.24
13713;DHT22;6928;50.546;7.120;2023-08-21T01:38:18;20.67;87.17
13713;DHT22;6928;50.546;7.120;2023-08-21T01:40:48;20.58;87.56
13713;DHT22;6928;50.546;7.120;2023-08-21T01:43:15;20.69;87.22
13713;DHT22;6928;50.546;7.120;2023-08-21T01:45:41;20.68;87.05
13713;DHT22;6928;50.546;7.120;2023-08-21T01:48:09;20.64;87.34
13713;DHT22;6928;50.546;7.120;2023-08-21T01:50:35;20.65;87.16
13713;DHT22;6928;50.546;7.120;2023-08-21T01:53:02;20.55;87.64
13713;DHT22;6928;50.546;7.120;2023-08-21T01:55:29;20.65;87.11
13713;DHT22;6928;50.546;7.120;2023-08-21T01:57:57;20.62;87.32
13713;DHT22;6928;50.546;7.120;2023-08-21T02:00:24;20.61;87.22
13713;DHT22;6928;50.546;7.120;2023-08-21T02:02:51;20.54;87.54
13713;DHT22;6928;50.546;7.120;2023-08-21T02:05:17;20.59;87.28
13713;DHT22;6928;50.546;7.120;2023-08-21T02:07:44;20.54;87.52
13713;DHT22;6928;50.546;7.120;2023-08-21T02:10:11;20.58;87.30
13713;DHT22;6928;50.546;7.120;2023-08-21T02:12:39;20.55;87.41
13713;DHT22;6928;50.546;7.120;2023-08-21T02:15:09;20.58;87.30
13713;DHT22;6928;50.546;7.120;2023-08-21T02:17:36;20.55;87.54
13713;DHT22;6928;50.546;7.120;2023-08-21T02:20:04;20.52;87.51
13713;DHT22;6928;50.546;7.120;2023-08-21T02:22:32;20.54;87.41
13713;DHT22;6928;50.546;7.120;2023-08-21T02:24:58;20.43;87.80
13713;DHT22;6928;50.546;7.120;2023-08-21T02:27:25;20.47;87.74
13713;DHT22;6928;50.546;7.120;2023-08-21T02:29:52;20.54;87.63
13713;DHT22;6928;50.546;7.120;2023-08-21T02:32:20;20.49;87.71
13713;DHT22;6928;50.546;7.120;2023-08-21T02:34:47;20.44;88.19
13713;DHT22;6928;50.546;7.120;2023-08-21T02:37:14;20.44;87.76
13713;DHT22;6928;50.546;7.120;2023-08-21T02:39:40;20.37;87.89
13713;DHT22;6928;50.546;7.120;2023-08-21T02:42:07;20.38;87.98
13713;DHT22;6928;50.546;7.120;2023-08-21T02:44:34;20.28;88.09
13713;DHT22;6928;50.546;7.120;2023-08-21T02:47:01;20.38;87.88
13713;DHT22;6928;50.546;7.120;2023-08-21T02:49:29;20.37;87.90
13713;DHT22;6928;50.546;7.120;2023-08-21T02:51:56;20.33;88.04
13713;DHT22;6928;50.546;7.120;2023-08-21T02:54:22;20.28;88.17
13713;DHT22;6928;50.546;7.120;2023-08-21T02:56:49;20.28;88.43
13713;DHT22;6928;50.546;7.120;2023-08-21T02:59:16;20.33;88.09
13713;DHT22;6928;50.546;7.120;2023-08-21T03:01:42;20.27;88.31
13713;DHT22;6928;50.546;7.120;2023-08-21T03:04:09;20.21;88.45
13713;DHT22;6928;50.546;7.120;2023-08-21T03:06:38;20.21;88.53
13713;DHT22;6928;50.546;7.120;2023-08-21T03:09:04;20.21;88.52
13713;DHT22;6928;50.546;7.120;2023-08-21T03:11:31;20.18;88.78
13713;DHT22;6928;50.546;7.120;2023-08-21T03:13:58;20.30;88.42
13713;DHT22;6928;50.546;7.120;2023-08-21T03:16:25;20.30;88.28
13713;DHT22;6928;50.546;7.120;2023-08-21T03:18:56;20.30;88.16
13713;DHT22;6928;50.546;7.120;2023-08-21T03:21:24;20.30;88.11
13713;DHT22;6928;50.546;7.120;2023-08-21T03:23:55;20.33;88.07
13713;DHT22;6928;50.546;7.120;2023-08-21T03:26:22;20.36;88.12
13713;DHT22;6928;50.546;7.120;2023-08-21T03:28:49;20.34;88.03
13713;DHT22;6928;50.546;7.120;2023-08-21T03:31:16;20.31;88.16
13713;DHT22;6928;50.546;7.120;2023-08-21T03:33:42;20.30;88.12
13713;DHT22;6928;50.546;7.120;2023-08-21T03:36:09;20.17;88.59
13713;DHT22;6928;50.546;7.120;2023-08-21T03:38:36;20.18;88.63
13713;DHT22;6928;50.546;7.120;2023-08-21T03:41:04;20.24;88.48
13713;DHT22;6928;50.546;7.120;2023-08-21T03:43:31;20.24;88.40
13713;DHT22;6928;50.546;7.120;2023-08-21T03:45:58;20.23;88.33
13713;DHT22;6928;50.546;7.120;2023-08-21T03:48:25;20.09;89.06
13713;DHT22;6928;50.546;7.120;2023-08-21T03:50:51;19.95;89.57
13713;DHT22;6928;50.546;7.120;2023-08-21T03:53:18;20.21;88.91
13713;DHT22;6928;50.546;7.120;2023-08-21T03:55:45;20.27;88.35
13713;DHT22;6928;50.546;7.120;2023-08-21T03:58:14;20.23;88.55
13713;DHT22;6928;50.546;7.120;2023-08-21T04:00:41;20.20;88.75
13713;DHT22;6928;50.546;7.120;2023-08-21T04:03:08;20.20;88.65
13713;DHT22;6928;50.546;7.120;2023-08-21T04:05:34;19.95;90.15
13713;DHT22;6928;50.546;7.120;2023-08-21T04:08:01;20.02;89.76
13713;DHT22;6928;50.546;7.120;2023-08-21T04:10:28;20.06;89.87
13713;DHT22;6928;50.546;7.120;2023-08-21T04:12:55;20.07;89.56
13713;DHT22;6928;50.546;7.120;2023-08-21T04:15:23;20.17;89.43
13713;DHT22;6928;50.546;7.120;2023-08-21T04:17:50;20.16;89.45
13713;DHT22;6928;50.546;7.120;2023-08-21T04:20:17;20.28;88.79
13713;DHT22;6928;50.546;7.120;2023-08-21T04:22:44;20.20;88.82
13713;DHT22;6928;50.546;7.120;2023-08-21T04:25:11;20.16;89.01
13713;DHT22;6928;50.546;7.120;2023-08-21T04:27:38;20.14;88.91
13713;DHT22;6928;50.546;7.120;2023-08-21T04:30:06;20.13;89.09
13713;DHT22;6928;50.546;7.120;2023-08-21T04:32:34;20.10;89.10
13713;DHT22;6928;50.546;7.120;2023-08-21T04:35:01;20.20;88.60
13713;DHT22;6928;50.546;7.120;2023-08-21T04:37:28;20.16;88.77
13713;DHT22;6928;50.546;7.120;2023-08-21T04:39:55;20.16;88.65
13713;DHT22;6928;50.546;7.120;2023-08-21T04:42:22;20.12;88.75
13713;DHT22;6928;50.546;7.120;2023-08-21T04:44:49;20.05;89.08
13713;DHT22;6928;50.546;7.120;2023-08-21T04:47:20;20.07;88.73
13713;DHT22;6928;50.546;7.120;2023-08-21T04:49:49;20.10;88.69
13713;DHT22;6928;50.546;7.120;2023-08-21T04:52:16;20.16;88.49
13713;DHT22;6928;50.546;7.120;2023-08-21T04:54:43;20.09;88.77
13713;DHT22;6928;50.546;7.120;2023-08-21T04:57:11;20.12;88.61
13713;DHT22;6928;50.546;7.120;2023-08-21T04:59:38;20.09;88.61
13713;DHT22;6928;50.546;7.120;2023-08-21T05:02:05;20.10;88.40
13713;DHT22;6928;50.546;7.120;2023-08-21T05:04:32;20.09;88.57
13713;DHT22;6928;50.546;7.120;2023-08-21T05:07:00;20.13;88.62
13713;DHT22;6928;50.546;7.120;2023-08-21T05:09:27;20.10;89.09
13713;DHT22;6928;50.546;7.120;2023-08-21T05:11:54;20.07;89.19
13713;DHT22;6928;50.546;7.120;2023-08-21T05:14:21;20.21;88.67
13713;DHT22;6928;50.546;7.120;2023-08-21T05:16:48;20.21;88.53
13713;DHT22;6928;50.546;7.120;2023-08-21T05:19:16;20.16;89.23
13713;DHT22;6928;50.546;7.120;2023-08-21T05:21:42;20.09;89.17
13713;DHT22;6928;50.546;7.120;2023-08-21T05:24:11;20.07;89.05
13713;DHT22;6928;50.546;7.120;2023-08-21T05:26:38;20.17;88.93
13713;DHT22;6928;50.546;7.120;2023-08-21T05:29:05;20.26;88.61
13713;DHT22;6928;50.546;7.120;2023-08-21T05:31:31;20.26;88.60
13713;DHT22;6928;50.546;7.120;2023-08-21T05:33:58;20.23;88.78
13713;DHT22;6928;50.546;7.120;2023-08-21T05:36:25;20.31;88.69
13713;DHT22;6928;50.546;7.120;2023-08-21T05:38:52;20.31;88.62
13713;DHT22;6928;50.546;7.120;2023-08-21T05:41:20;20.26;88.75
13713;DHT22;6928;50.546;7.120;2023-08-21T05:43:47;20.27;88.86
13713;DHT22;6928;50.546;7.120;2023-08-21T05:46:14;20.16;89.41
13713;DHT22;6928;50.546;7.120;2023-08-21T05:48:41;20.34;88.83
13713;DHT22;6928;50.546;7.120;2023-08-21T05:51:08;20.13;89.34
13713;DHT22;6928;50.546;7.120;2023-08-21T05:53:34;20.17;89.52
13713;DHT22;6928;50.546;7.120;2023-08-21T05:56:01;20.38;88.97
13713;DHT22;6928;50.546;7.120;2023-08-21T05:58:29;20.44;88.87
13713;DHT22;6928;50.546;7.120;2023-08-21T06:00:58;20.61;88.30
13713;DHT22;6928;50.546;7.120;2023-08-21T06:03:25;20.40;88.71
13713;DHT22;6928;50.546;7.120;2023-08-21T06:05:52;20.38;88.89
13713;DHT22;6928;50.546;7.120;2023-08-21T06:08:19;20.52;88.60
13713;DHT22;6928;50.546;7.120;2023-08-21T06:10:51;20.49;88.47
13713;DHT22;6928;50.546;7.120;2023-08-21T06:13:18;20.52;88.47
13713;DHT22;6928;50.546;7.120;2023-08-21T06:15:46;20.52;88.32
13713;DHT22;6928;50.546;7.120;2023-08-21T06:18:13;20.69;88.06
13713;DHT22;6928;50.546;7.120;2023-08-21T06:20:42;20.64;88.33
13713;DHT22;6928;50.546;7.120;2023-08-21T06:23:09;20.72;87.99
13713;DHT22;6928;50.546;7.120;2023-08-21T06:25:36;20.75;87.70
13713;DHT22;6928;50.546;7.120;2023-08-21T06:28:03;20.82;87.97
13713;DHT22;6928;50.546;7.120;2023-08-21T06:30:30;21.03;87.25
13713;DHT22;6928;50.546;7.120;2023-08-21T06:32:59;21.23;87.03
13713;DHT22;6928;50.546;7.120;2023-08-21T06:35:25;21.23;86.76
13713;DHT22;6928;50.546;7.120;2023-08-21T06:37:52;21.02;87.26
13713;DHT22;6928;50.546;7.120;2023-08-21T06:40:20;21.02;87.67
13713;DHT22;6928;50.546;7.120;2023-08-21T06:42:46;21.15;87.29
13713;DHT22;6928;50.546;7.120;2023-08-21T06:45:14;21.17;87.31
13713;DHT22;6928;50.546;7.120;2023-08-21T06:47:41;21.26;87.20
13713;DHT22;6928;50.546;7.120;2023-08-21T06:50:10;21.34;87.26
13713;DHT22;6928;50.546;7.120;2023-08-21T06:52:37;21.40;87.34
13713;DHT22;6928;50.546;7.120;2023-08-21T06:55:05;21.54;86.82
13713;DHT22;6928;50.546;7.120;2023-08-21T06:57:31;21.51;86.75
13713;DHT22;6928;50.546;7.120;2023-08-21T06:59:58;21.43;86.68
13713;DHT22;6928;50.546;7.120;2023-08-21T07:02:25;21.53;86.69
13713;DHT22;6928;50.546;7.120;2023-08-21T07:04:52;21.81;86.15
13713;DHT22;6928;50.546;7.120;2023-08-21T07:07:20;21.82;85.92
13713;DHT22;6928;50.546;7.120;2023-08-21T07:09:46;21.74;86.00
13713;DHT22;6928;50.546;7.120;2023-08-21T07:12:13;21.77;86.09
13713;DHT22;6928;50.546;7.120;2023-08-21T07:14:40;21.88;86.01
13713;DHT22;6928;50.546;7.120;2023-08-21T07:17:06;22.02;85.82
13713;DHT22;6928;50.546;7.120;2023-08-21T07:19:33;22.05;85.83
13713;DHT22;6928;50.546;7.120;2023-08-21T07:22:00;22.15;85.41
13713;DHT22;6928;50.546;7.120;2023-08-21T07:24:28;22.39;84.73
13713;DHT22;6928;50.546;7.120;2023-08-21T07:26:55;22.50;84.79
13713;DHT22;6928;50.546;7.120;2023-08-21T07:29:22;22.60;84.33
13713;DHT22;6928;50.546;7.120;2023-08-21T07:31:48;22.59;84.87
13713;DHT22;6928;50.546;7.120;2023-08-21T07:34:15;22.57;84.03
13713;DHT22;6928;50.546;7.120;2023-08-21T07:36:42;22.57;83.39
13713;DHT22;6928;50.546;7.120;2023-08-21T07:39:09;22.56;83.05
13713;DHT22;6928;50.546;7.120;2023-08-21T07:41:37;22.62;83.03
13713;DHT22;6928;50.546;7.120;2023-08-21T07:44:04;22.80;82.62
13713;DHT22;6928;50.546;7.120;2023-08-21T07:46:30;22.87;82.13
13713;DHT22;6928;50.546;7.120;2023-08-21T07:48:57;23.01;81.73
13713;DHT22;6928;50.546;7.120;2023-08-21T07:51:24;22.92;81.70
13713;DHT22;6928;50.546;7.120;2023-08-21T07:53:51;23.05;81.65
13713;DHT22;6928;50.546;7.120;2023-08-21T07:56:18;23.25;81.00
13713;DHT22;6928;50.546;7.120;2023-08-21T07:58:46;23.55;80.01
13713;DHT22;6928;50.546;7.120;2023-08-21T08:01:13;23.41;81.16
13713;DHT22;6928;50.546;7.120;2023-08-21T08:03:39;23.43;81.04
13713;DHT22;6928;50.546;7.120;2023-08-21T08:06:06;23.39;80.97
13713;DHT22;6928;50.546;7.120;2023-08-21T08:08:33;23.69;80.72
13713;DHT22;6928;50.546;7.120;2023-08-21T08:11:03;23.69;80.13
13713;DHT22;6928;50.546;7.120;2023-08-21T08:13:31;23.83;79.54
13713;DHT22;6928;50.546;7.120;2023-08-21T08:16:00;23.89;79.30
13713;DHT22;6928;50.546;7.120;2023-08-21T08:18:27;23.96;79.64
13713;DHT22;6928;50.546;7.120;2023-08-21T08:20:53;24.01;79.32
13713;DHT22;6928;50.546;7.120;2023-08-21T08:23:20;24.38;78.02
13713;DHT22;6928;50.546;7.120;2023-08-21T08:25:48;24.51;77.66
13713;DHT22;6928;50.546;7.120;2023-08-21T08:28:15;24.54;78.25
13713;DHT22;6928;50.546;7.120;2023-08-21T08:30:42;24.40;78.23
13713;DHT22;6928;50.546;7.120;2023-08-21T08:33:10;24.71;77.11
13713;DHT22;6928;50.546;7.120;2023-08-21T08:35:37;24.88;77.00
13713;DHT22;6928;50.546;7.120;2023-08-21T08:38:06;24.96;76.61
13713;DHT22;6928;50.546;7.120;2023-08-21T08:40:33;24.89;76.39
13713;DHT22;6928;50.546;7.120;2023-08-21T08:43:00;24.92;76.48
13713;DHT22;6928;50.546;7.120;2023-08-21T08:45:29;25.06;76.07
13713;DHT22;6928;50.546;7.120;2023-08-21T08:47:58;24.89;75.46
13713;DHT22;6928;50.546;7.120;2023-08-21T08:50:29;25.03;75.29
13713;DHT22;6928;50.546;7.120;2023-08-21T08:52:57;25.16;74.46
13713;DHT22;6928;50.546;7.120;2023-08-21T08:55:25;25.24;74.59
13713;DHT22;6928;50.546;7.120;2023-08-21T08:57:53;25.27;74.19
13713;DHT22;6928;50.546;7.120;2023-08-21T09:00:20;25.10;74.58
13713;DHT22;6928;50.546;7.120;2023-08-21T09:02:47;25.16;74.69
13713;DHT22;6928;50.546;7.120;2023-08-21T09:05:14;25.23;74.31
13713;DHT22;6928;50.546;7.120;2023-08-21T09:07:43;25.47;73.12
13713;DHT22;6928;50.546;7.120;2023-08-21T09:10:13;25.34;73.08
13713;DHT22;6928;50.546;7.120;2023-08-21T09:12:41;25.46;72.70
13713;DHT22;6928;50.546;7.120;2023-08-21T09:15:09;25.51;72.43
13713;DHT22;6928;50.546;7.120;2023-08-21T09:17:37;25.65;72.32
13713;DHT22;6928;50.546;7.120;2023-08-21T09:20:04;25.88;72.09
13713;DHT22;6928;50.546;7.120;2023-08-21T09:22:31;25.78;71.42
13713;DHT22;6928;50.546;7.120;2023-08-21T09:25:04;25.88;71.07
13713;DHT22;6928;50.546;7.120;2023-08-21T09:27:34;25.91;71.46
13713;DHT22;6928;50.546;7.120;2023-08-21T09:30:03;26.01;71.65
13713;DHT22;6928;50.546;7.120;2023-08-21T09:32:30;26.02;71.78
13713;DHT22;6928;50.546;7.120;2023-08-21T09:34:57;26.26;71.36
13713;DHT22;6928;50.546;7.120;2023-08-21T09:37:28;26.18;70.83
13713;DHT22;6928;50.546;7.120;2023-08-21T09:40:00;26.15;70.30
13713;DHT22;6928;50.546;7.120;2023-08-21T09:42:31;26.57;68.99
13713;DHT22;6928;50.546;7.120;2023-08-21T09:44:58;26.46;69.33
13713;DHT22;6928;50.546;7.120;2023-08-21T09:47:27;26.64;69.61
13713;DHT22;6928;50.546;7.120;2023-08-21T09:49:55;26.65;69.61
13713;DHT22;6928;50.546;7.120;2023-08-21T09:52:22;26.68;69.70
13713;DHT22;6928;50.546;7.120;2023-08-21T09:54:49;26.86;69.37
13713;DHT22;6928;50.546;7.120;2023-08-21T09:57:19;27.00;69.59
13713;DHT22;6928;50.546;7.120;2023-08-21T09:59:51;26.88;69.73
13713;DHT22;6928;50.546;7.120;2023-08-21T10:02:20;27.38;68.30
13713;DHT22;6928;50.546;7.120;2023-08-21T10:04:48;27.38;68.46
13713;DHT22;6928;50.546;7.120;2023-08-21T10:07:17;27.01;68.33
13713;DHT22;6928;50.546;7.120;2023-08-21T10:09:47;26.94;68.95
13713;DHT22;6928;50.546;7.120;2023-08-21T10:12:16;27.18;68.78
13713;DHT22;6928;50.546;7.120;2023-08-21T10:14:43;27.29;68.03
13713;DHT22;6928;50.546;7.120;2023-08-21T10:17:12;27.26;68.68
13713;DHT22;6928;50.546;7.120;2023-08-21T10:19:39;27.22;68.19
13713;DHT22;6928;50.546;7.120;2023-08-21T10:22:06;27.28;68.92
13713;DHT22;6928;50.546;7.120;2023-08-21T10:24:37;27.52;68.05
13713;DHT22;6928;50.546;7.120;2023-08-21T10:27:05;27.60;68.21
13713;DHT22;6928;50.546;7.120;2023-08-21T10:29:32;27.51;67.87
13713;DHT22;6928;50.546;7.120;2023-08-21T10:32:01;27.73;67.99
13713;DHT22;6928;50.546;7.120;2023-08-21T10:34:35;27.82;67.77
13713;DHT22;6928;50.546;7.120;2023-08-21T10:37:08;27.60;67.02
13713;DHT22;6928;50.546;7.120;2023-08-21T10:39:40;27.76;67.32
13713;DHT22;6928;50.546;7.120;2023-08-21T10:42:19;27.77;66.22
13713;DHT22;6928;50.546;7.120;2023-08-21T10:44:52;28.17;65.65
13713;DHT22;6928;50.546;7.120;2023-08-21T10:47:23;27.86;66.64
13713;DHT22;6928;50.546;7.120;2023-08-21T10:49:53;27.65;67.06
13713;DHT22;6928;50.546;7.120;2023-08-21T10:52:22;27.69;66.75
13713;DHT22;6928;50.546;7.120;2023-08-21T10:54:52;27.55;67.13
13713;DHT22;6928;50.546;7.120;2023-08-21T10:57:19;27.67;67.49
13713;DHT22;6928;50.546;7.120;2023-08-21T10:59:55;27.97;67.44
13713;DHT22;6928;50.546;7.120;2023-08-21T11:02:22;28.18;67.33
13713;DHT22;6928;50.546;7.120;2023-08-21T11:04:51;28.30;65.58
13713;DHT22;6928;50.546;7.120;2023-08-21T11:07:19;28.17;65.06
13713;DHT22;6928;50.546;7.120;2023-08-21T11:09:47;27.93;66.06
13713;DHT22;6928;50.546;7.120;2023-08-21T11:12:16;27.93;66.17
13713;DHT22;6928;50.546;7.120;2023-08-21T11:14:44;27.69;66.41
13713;DHT22;6928;50.546;7.120;2023-08-21T11:17:11;28.07;65.73
13713;DHT22;6928;50.546;7.120;2023-08-21T11:19:39;27.89;66.27
13713;DHT22;6928;50.546;7.120;2023-08-21T11:22:08;28.61;64.86
13713;DHT22;6928;50.546;7.120;2023-08-21T11:24:43;27.79;66.31
13713;DHT22;6928;50.546;7.120;2023-08-21T11:27:13;28.21;66.50
13713;DHT22;6928;50.546;7.120;2023-08-21T11:29:43;28.24;65.38
13713;DHT22;6928;50.546;7.120;2023-08-21T11:32:12;28.40;65.45
13713;DHT22;6928;50.546;7.120;2023-08-21T11:34:41;28.69;64.80
13713;DHT22;6928;50.546;7.120;2023-08-21T11:37:11;28.75;65.25
13713;DHT22;6928;50.546;7.120;2023-08-21T11:39:43;28.59;65.49
13713;DHT22;6928;50.546;7.120;2023-08-21T11:42:12;28.35;65.12
13713;DHT22;6928;50.546;7.120;2023-08-21T11:44:44;28.38;65.36
13713;DHT22;6928;50.546;7.120;2023-08-21T11:47:13;28.27;65.68
13713;DHT22;6928;50.546;7.120;2023-08-21T11:49:41;27.99;65.49
13713;DHT22;6928;50.546;7.120;2023-08-21T11:52:11;28.00;66.12
13713;DHT22;6928;50.546;7.120;2023-08-21T11:54:40;27.82;66.35
13713;DHT22;6928;50.546;7.120;2023-08-21T11:57:09;27.89;66.56
13713;DHT22;6928;50.546;7.120;2023-08-21T11:59:38;27.72;67.47
13713;DHT22;6928;50.546;7.120;2023-08-21T12:02:16;28.24;65.87
13713;DHT22;6928;50.546;7.120;2023-08-21T12:04:43;28.51;65.17
13713;DHT22;6928;50.546;7.120;2023-08-21T12:07:12;28.28;65.67
13713;DHT22;6928;50.546;7.120;2023-08-21T12:09:39;28.49;65.06
13713;DHT22;6928;50.546;7.120;2023-08-21T12:12:06;28.18;65.32
13713;DHT22;6928;50.546;7.120;2023-08-21T12:14:33;28.03;65.41
13713;DHT22;6928;50.546;7.120;2023-08-21T12:17:04;28.09;64.95
13713;DHT22;6928;50.546;7.120;2023-08-21T12:19:32;28.07;66.34
13713;DHT22;6928;50.546;7.120;2023-08-21T12:21:59;27.96;65.76
13713;DHT22;6928;50.546;7.120;2023-08-21T12:24:28;27.79;65.61
13713;DHT22;6928;50.546;7.120;2023-08-21T12:26:56;27.83;65.56
13713;DHT22;6928;50.546;7.120;2023-08-21T12:29:23;27.73;65.85
13713;DHT22;6928;50.546;7.120;2023-08-21T12:31:50;27.93;65.71
13713;DHT22;6928;50.546;7.120;2023-08-21T12:34:16;27.99;65.46
13713;DHT22;6928;50.546;7.120;2023-08-21T12:36:43;28.20;65.09
13713;DHT22;6928;50.546;7.120;2023-08-21T12:39:10;28.11;66.09
13713;DHT22;6928;50.546;7.120;2023-08-21T12:41:38;28.52;64.72
13713;DHT22;6928;50.546;7.120;2023-08-21T12:44:05;28.78;64.16
13713;DHT22;6928;50.546;7.120;2023-08-21T12:46:37;28.49;64.81
13713;DHT22;6928;50.546;7.120;2023-08-21T12:49:05;28.51;64.35
13713;DHT22;6928;50.546;7.120;2023-08-21T12:51:32;28.61;63.70
13713;DHT22;6928;50.546;7.120;2023-08-21T12:53:59;28.78;63.77
13713;DHT22;6928;50.546;7.120;2023-08-21T12:56:25;28.75;63.98
13713;DHT22;6928;50.546;7.120;2023-08-21T12:58:54;28.49;64.34
13713;DHT22;6928;50.546;7.120;2023-08-21T13:01:20;28.30;64.29
13713;DHT22;6928;50.546;7.120;2023-08-21T13:03:47;28.17;64.79
13713;DHT22;6928;50.546;7.120;2023-08-21T13:06:14;28.28;65.01
13713;DHT22;6928;50.546;7.120;2023-08-21T13:08:41;28.32;64.46
13713;DHT22;6928;50.546;7.120;2023-08-21T13:11:08;28.51;64.27
13713;DHT22;6928;50.546;7.120;2023-08-21T13:13:35;28.30;64.64
13713;DHT22;6928;50.546;7.120;2023-08-21T13:16:03;28.64;64.82
13713;DHT22;6928;50.546;7.120;2023-08-21T13:18:32;28.72;64.30
13713;DHT22;6928;50.546;7.120;2023-08-21T13:20:59;28.37;64.59
13713;DHT22;6928;50.546;7.120;2023-08-21T13:23:28;28.37;64.63
13713;DHT22;6928;50.546;7.120;2023-08-21T13:25:55;28.16;64.10
13713;DHT22;6928;50.546;7.120;2023-08-21T13:28:23;28.42;63.83
13713;DHT22;6928;50.546;7.120;2023-08-21T13:30:50;28.32;63.43
13713;DHT22;6928;50.546;7.120;2023-08-21T13:33:19;28.21;63.15
13713;DHT22;6928;50.546;7.120;2023-08-21T13:35:46;28.22;63.70
13713;DHT22;6928;50.546;7.120;2023-08-21T13:38:13;28.52;63.75
13713;DHT22;6928;50.546;7.120;2023-08-21T13:40:41;28.25;63.74
13713;DHT22;6928;50.546;7.120;2023-08-21T13:43:07;28.24;63.27
13713;DHT22;6928;50.546;7.120;2023-08-21T13:45:35;27.87;63.88
13713;DHT22;6928;50.546;7.120;2023-08-21T13:48:03;27.93;64.17
13713;DHT22;6928;50.546;7.120;2023-08-21T13:50:31;27.89;63.99
13713;DHT22;6928;50.546;7.120;2023-08-21T13:52:59;27.66;64.24
13713;DHT22;6928;50.546;7.120;2023-08-21T13:55:26;27.62;64.28
13713;DHT22;6928;50.546;7.120;2023-08-21T13:57:53;27.63;64.28
13713;DHT22;6928;50.546;7.120;2023-08-21T14:00:20;27.84;63.37
13713;DHT22;6928;50.546;7.120;2023-08-21T14:02:47;28.06;64.10
13713;DHT22;6928;50.546;7.120;2023-08-21T14:05:16;28.18;63.25
13713;DHT22;6928;50.546;7.120;2023-08-21T14:07:48;28.10;62.98
13713;DHT22;6928;50.546;7.120;2023-08-21T14:10:17;28.07;62.84
13713;DHT22;6928;50.546;7.120;2023-08-21T14:12:43;27.94;63.26
13713;DHT22;6928;50.546;7.120;2023-08-21T14:15:10;27.86;63.24
13713;DHT22;6928;50.546;7.120;2023-08-21T14:17:37;27.66;63.50
13713;DHT22;6928;50.546;7.120;2023-08-21T14:20:06;27.65;63.62
13713;DHT22;6928;50.546;7.120;2023-08-21T14:22:33;27.89;63.28
13713;DHT22;6928;50.546;7.120;2023-08-21T14:25:01;27.79;63.01
13713;DHT22;6928;50.546;7.120;2023-08-21T14:27:29;27.89;62.50
13713;DHT22;6928;50.546;7.120;2023-08-21T14:29:56;27.93;62.12
13713;DHT22;6928;50.546;7.120;2023-08-21T14:32:23;28.07;61.61
13713;DHT22;6928;50.546;7.120;2023-08-21T14:34:50;28.17;61.63
13713;DHT22;6928;50.546;7.120;2023-08-21T14:37:18;28.17;61.97
13713;DHT22;6928;50.546;7.120;2023-08-21T14:39:46;28.09;61.42
13713;DHT22;6928;50.546;7.120;2023-08-21T14:42:15;28.10;61.45
13713;DHT22;6928;50.546;7.120;2023-08-21T14:44:42;28.14;61.44
13713;DHT22;6928;50.546;7.120;2023-08-21T14:47:08;28.40;61.67
13713;DHT22;6928;50.546;7.120;2023-08-21T14:49:37;28.64;61.08
13713;DHT22;6928;50.546;7.120;2023-08-21T14:52:04;28.27;60.73
13713;DHT22;6928;50.546;7.120;2023-08-21T14:54:33;28.42;61.16
13713;DHT22;6928;50.546;7.120;2023-08-21T14:57:01;28.59;59.55
13713;DHT22;6928;50.546;7.120;2023-08-21T14:59:31;28.40;60.07
13713;DHT22;6928;50.546;7.120;2023-08-21T15:01:59;28.67;59.31
13713;DHT22;6928;50.546;7.120;2023-08-21T15:04:28;28.67;60.00
13713;DHT22;6928;50.546;7.120;2023-08-21T15:06:56;28.79;59.57
13713;DHT22;6928;50.546;7.120;2023-08-21T15:09:25;28.82;60.07
13713;DHT22;6928;50.546;7.120;2023-08-21T15:11:52;28.59;59.67
13713;DHT22;6928;50.546;7.120;2023-08-21T15:14:20;28.65;60.11
13713;DHT22;6928;50.546;7.120;2023-08-21T15:16:48;28.41;59.91
13713;DHT22;6928;50.546;7.120;2023-08-21T15:19:15;28.41;59.74
13713;DHT22;6928;50.546;7.120;2023-08-21T15:21:42;28.31;59.90
13713;DHT22;6928;50.546;7.120;2023-08-21T15:24:09;28.01;59.92
13713;DHT22;6928;50.546;7.120;2023-08-21T15:26:35;28.01;60.26
13713;DHT22;6928;50.546;7.120;2023-08-21T15:29:02;27.87;59.03
13713;DHT22;6928;50.546;7.120;2023-08-21T15:31:29;27.94;59.93
13713;DHT22;6928;50.546;7.120;2023-08-21T15:33:57;28.10;60.14
13713;DHT22;6928;50.546;7.120;2023-08-21T15:36:24;28.07;59.03
13713;DHT22;6928;50.546;7.120;2023-08-21T15:38:51;27.91;59.37
13713;DHT22;6928;50.546;7.120;2023-08-21T15:41:18;27.89;59.53
13713;DHT22;6928;50.546;7.120;2023-08-21T15:43:44;28.01;60.15
13713;DHT22;6928;50.546;7.120;2023-08-21T15:46:11;28.04;59.80
13713;DHT22;6928;50.546;7.120;2023-08-21T15:48:38;28.04;59.74